Rankings de siempre
Mejores tiempos personales válidos de equipo a través de todos los eventos y temporadas. Cada equipo aparece una vez por división.
Busca por nombre y abre la página donde está clasificado este récord de división.
137,494 equipos clasificados
| Pos. | Pos. AG | Equipo | Nacionalidad | Categoría de edad | TiempoMejor tiempo | Diferencia |
|---|---|---|---|---|---|---|
| 132526 | #41933 | Alma Karen Hernández Pedraza & Jocelyn Fernanda Herrera RiveraMEX · W 30-34 · AG #41933 | MEX | W 30-34 | 1:59:12 | +65:51 |
| 132527 | #209 | Julia Saunders & Penny TaylorGBR · W 60-64 · AG #209 | GBR | W 60-64 | 1:59:12 | +65:51 |
| 132528 | #41934 | Yulia Devitarani & Olivia Ayu ShintaINA · W 30-34 · AG #41934 | INA | W 30-34 | 1:59:12 | +65:51 |
| 132529 | #19660 | Chloe Patrick & Monica KeebleGBR · W 25-29 · AG #19660 | GBR | W 25-29 | 1:59:12 | +65:51 |
| 132530 | #3071 | Céline Leu & VALENTINA GALLICFRA · W 50-54 · AG #3071 | FRA | W 50-54 | 1:59:12 | +65:51 |
| 132531 | #18847 | Keja Williams & Kristen AgbatoUSA · W 40-44 · AG #18847 | USA | W 40-44 | 1:59:12 | +65:51 |
| 132532 | #41935 | Sarah Edmonson & Emma MurgidaCAN · W 30-34 · AG #41935 | CAN | W 30-34 | 1:59:13 | +65:52 |
| 132533 | #4360 | MARELYN TORRES & ALICIA TORRESMEX · W 45-49 · AG #4360 | MEX | W 45-49 | 1:59:13 | +65:52 |
| 132534 | #41936 | Farah Suleman & Saamiyah KhanGBR · W 30-34 · AG #41936 | GBR | W 30-34 | 1:59:13 | +65:52 |
| 132535 | #41941 | 倩婷 叶 & 嘉茵 谢CHN · W 30-34 · AG #41941 | CHN | W 30-34 | 1:59:13 | +65:52 |
| 132536 | #10884 | Charlize Young & Tia BroadAUS · W 16-24 · AG #10884 | AUS | W 16-24 | 1:59:13 | +65:52 |
| 132537 | #41937 | Anastasia Vlachou & Ioanna KoubarouGRE · W 30-34 · AG #41937 | GRE | W 30-34 | 1:59:13 | +65:52 |
| 132538 | #41938 | Alicia Genyn & Emily GenynCAN · W 30-34 · AG #41938 | CAN | W 30-34 | 1:59:13 | +65:52 |
| 132539 | #41939 | Desiree Cortez & Bailey Rose BuchananUSA · W 30-34 · AG #41939 | USA | W 30-34 | 1:59:13 | +65:52 |
| 132540 | #41940 | Dana Bonke & Carola NijkampNED · W 30-34 · AG #41940 | NED | W 30-34 | 1:59:13 | +65:52 |
| 132541 | #18848 | Michelle St Ledger & Gillian O MahonyIRL · W 40-44 · AG #18848 | IRL | W 40-44 | 1:59:13 | +65:52 |
| 132542 | #18849 | Suzette Hernandez & Helen SmithUSA · W 40-44 · AG #18849 | USA | W 40-44 | 1:59:13 | +65:52 |
| 132543 | #18850 | Rebekah Mann & Melanie SelcraigGBR · W 40-44 · AG #18850 | GBR | W 40-44 | 1:59:13 | +65:52 |
| 132544 | #4361 | Chloe Mallett & Anita BruceGBR · W 45-49 · AG #4361 | GBR | W 45-49 | 1:59:14 | +65:53 |
| 132545 | #14463 | Nthabiseng Tsotetsi & Dipotso MhlongoRSA · W 35-39 · AG #14463 | RSA | W 35-39 | 1:59:14 | +65:53 |
| 132546 | -- | Tania Sofia Carrasco Reyna & Ana Sofia Gonzalez LozanoMEX · W WU29 | MEX | W WU29 | 1:59:14 | +65:53 |
| 132547 | -- | Katy Bone & mequela luceroUSA · W WU29 | USA | W WU29 | 1:59:14 | +65:53 |
| 132548 | -- | Ellese Puopolo & Kennedy JonesAUS · W WU29 | AUS | W WU29 | 1:59:14 | +65:53 |
| 132549 | -- | Jentira Holloway & Becca WattsGBR · W WU29 | GBR | W WU29 | 1:59:14 | +65:53 |
| 132550 | #18851 | Shara Virrisya & Dira SugandiINA · W 40-44 · AG #18851 | INA | W 40-44 | 1:59:14 | +65:53 |
Página 5,302 de 5,500